Terminal Aerodrome Forecast
Issued by NWS Paducah, KY

Home | Current Version | Previous Version | Graphics & Text | Print | Product List | Glossary On
Versions: 1 2 3 4 5 6 7 8 9 10 11 12 13 14 15 16 17
000
FTUS43 KPAH 271100
TAFEVV
TAF
KEVV 271120Z 2712/2812 32007KT P6SM SCT012 BKN070
      TEMPO 2712/2715 BKN012
     FM271500 31012G19KT P6SM OVC012
     FM272300 31005KT P6SM SCT020
     FM280600 00000KT P6SM BKN090=

USA.gov is the U.S. government's official web portal to all federal, state and local government web resources and services.